Time;durP1;ratioP1;P1;durP2;ratioP2;P2;SDS_P1;SDS_P2;PMS_P1;PMS_P2;Temp;Humidity;BMP_temperature;BMP_pressure;BME280_temperature;BME280_humidity;BME280_pressure;Samples;Min_cycle;Max_cycle;Signal;HPM_P1;HPM_P2
2023/12/10 00:01:28;;;;;;;11.27;2.83;;;;;;;9.22;100.00;98749.25;5043413;28;20053;-67
2023/12/10 00:03:54;;;;;;;6.80;2.03;;;;;;;9.22;100.00;98750.06;5048954;28;20061;-67
2023/12/10 00:06:21;;;;;;;7.90;2.28;;;;;;;9.25;100.00;98747.28;5037672;28;20047;-67
2023/12/10 00:08:49;;;;;;;6.05;1.80;;;;;;;9.25;100.00;98757.72;5047916;28;20064;-67
2023/12/10 00:11:16;;;;;;;7.60;1.70;;;;;;;9.24;100.00;98763.03;5044042;28;20053;-67
2023/12/10 00:13:43;;;;;;;9.93;1.52;;;;;;;9.23;100.00;98767.44;5060833;28;20051;-67
2023/12/10 00:16:12;;;;;;;9.63;1.90;;;;;;;9.25;100.00;98769.94;5035659;28;20127;-67
2023/12/10 00:18:39;;;;;;;7.03;1.83;;;;;;;9.29;100.00;98780.09;5060552;28;20076;-67
2023/12/10 00:21:06;;;;;;;8.80;1.77;;;;;;;9.25;100.00;98783.00;5048644;28;20152;-67
2023/12/10 00:23:33;;;;;;;5.68;1.58;;;;;;;9.21;100.00;98781.53;5052352;28;20040;-66
2023/12/10 00:26:00;;;;;;;12.98;3.15;;;;;;;9.16;100.00;98792.25;5041469;28;20056;-67
2023/12/10 00:28:26;;;;;;;7.25;1.67;;;;;;;9.16;100.00;98791.44;5052807;28;20052;-66
2023/12/10 00:30:53;;;;;;;7.32;1.92;;;;;;;9.18;100.00;98789.56;5046840;28;20045;-66
2023/12/10 00:33:20;;;;;;;6.85;1.55;;;;;;;9.09;100.00;98799.63;5048608;28;20094;-67
2023/12/10 00:35:47;;;;;;;7.53;1.58;;;;;;;9.07;100.00;98800.66;5042656;28;20060;-67
2023/12/10 00:38:13;;;;;;;7.30;2.15;;;;;;;9.13;100.00;98824.59;5046990;28;20478;-66
2023/12/10 00:40:40;;;;;;;13.57;3.40;;;;;;;9.05;100.00;98824.25;5048503;28;20044;-67
2023/12/10 00:43:07;;;;;;;6.05;2.22;;;;;;;9.04;100.00;98835.63;5034676;28;20498;-67
2023/12/10 00:45:33;;;;;;;11.02;2.47;;;;;;;9.03;100.00;98839.19;5041609;28;20056;-67
2023/12/10 00:48:01;;;;;;;12.25;2.20;;;;;;;9.04;100.00;98850.44;5036705;28;20053;-66
2023/12/10 00:50:28;;;;;;;7.53;1.88;;;;;;;9.07;100.00;98855.50;5041492;28;20466;-67
2023/12/10 00:52:54;;;;;;;12.60;2.13;;;;;;;8.96;100.00;98848.31;5040728;28;20505;-67
2023/12/10 00:55:21;;;;;;;8.73;2.58;;;;;;;8.91;100.00;98868.66;5036045;28;20049;-67
2023/12/10 00:57:48;;;;;;;11.48;2.75;;;;;;;8.91;100.00;98874.69;5048366;28;20049;-67
2023/12/10 01:00:15;;;;;;;10.05;2.45;;;;;;;8.92;100.00;98886.81;5043328;28;20402;-67
2023/12/10 01:02:42;;;;;;;18.38;3.38;;;;;;;8.90;100.00;98895.66;5041104;28;20048;-67
2023/12/10 01:05:09;;;;;;;9.02;2.42;;;;;;;8.97;100.00;98907.41;5048205;28;20040;-67
2023/12/10 01:07:36;;;;;;;10.60;2.97;;;;;;;9.00;100.00;98906.41;5047990;28;20061;-67
2023/12/10 01:10:06;;;;;;;6.15;1.95;;;;;;;8.99;100.00;98905.53;5051545;28;20371;-67
2023/12/10 01:12:36;;;;;;;9.18;2.15;;;;;;;9.01;100.00;98897.63;5040414;28;20045;-67
2023/12/10 01:15:08;;;;;;;10.15;2.42;;;;;;;8.98;100.00;98908.25;5049125;28;20132;-67
2023/12/10 01:17:35;;;;;;;11.27;3.27;;;;;;;9.04;100.00;98913.94;5048638;28;20431;-67
2023/12/10 01:20:03;;;;;;;10.75;2.78;;;;;;;8.95;100.00;98906.66;5028047;28;20083;-66
2023/12/10 01:22:30;;;;;;;13.80;3.78;;;;;;;9.06;100.00;98919.06;5046944;28;20049;-67
2023/12/10 01:24:58;;;;;;;16.77;3.30;;;;;;;8.99;100.00;98913.38;5048964;28;20091;-67
2023/12/10 01:27:25;;;;;;;15.02;3.47;;;;;;;8.98;100.00;98926.50;5051650;28;20048;-67
2023/12/10 01:29:52;;;;;;;10.13;3.05;;;;;;;9.08;100.00;98931.13;5050813;28;20049;-67
2023/12/10 01:32:20;;;;;;;10.95;3.15;;;;;;;9.05;100.00;98928.69;5051533;28;20118;-67
2023/12/10 01:34:47;;;;;;;8.27;2.08;;;;;;;9.06;100.00;98932.97;5057409;28;20056;-67
2023/12/10 01:37:14;;;;;;;6.95;2.00;;;;;;;9.07;100.00;98939.03;5071024;28;20060;-67
2023/12/10 01:39:41;;;;;;;10.35;2.58;;;;;;;9.04;100.00;98940.03;5071286;28;20044;-67
2023/12/10 01:42:08;;;;;;;9.05;2.15;;;;;;;8.91;100.00;98913.84;5042651;28;20052;-67
2023/12/10 01:44:34;;;;;;;9.32;2.08;;;;;;;9.03;100.00;98932.28;5054431;28;20049;-67
2023/12/10 01:47:02;;;;;;;8.38;2.33;;;;;;;9.01;100.00;98932.41;5065493;28;20049;-67
2023/12/10 01:49:29;;;;;;;10.35;2.55;;;;;;;9.06;100.00;98946.00;5056879;28;20049;-67
2023/12/10 01:51:56;;;;;;;13.32;2.95;;;;;;;8.98;100.00;98943.03;5046216;28;20098;-66
2023/12/10 01:54:24;;;;;;;8.00;2.10;;;;;;;8.96;100.00;98946.66;5053557;28;20509;-67
2023/12/10 01:56:52;;;;;;;6.30;2.03;;;;;;;8.97;100.00;98957.00;5067348;28;20522;-67
2023/12/10 01:59:32;;;;;;;13.48;2.13;;;;;;;8.96;100.00;98960.56;5053393;28;20124;-66
2023/12/10 02:01:59;;;;;;;7.78;2.30;;;;;;;8.96;100.00;98959.69;5045458;28;20049;-66
2023/12/10 02:04:26;;;;;;;9.95;2.03;;;;;;;9.01;100.00;98970.72;5059301;28;20053;-67
2023/12/10 02:06:53;;;;;;;6.13;1.83;;;;;;;9.00;100.00;98963.84;5058983;28;20056;-67
2023/12/10 02:09:20;;;;;;;4.72;1.73;;;;;;;9.10;100.00;98991.03;5062718;28;20055;-66
2023/12/10 02:11:47;;;;;;;7.68;2.25;;;;;;;9.10;100.00;99001.50;5056644;28;20081;-66
2023/12/10 02:14:14;;;;;;;8.30;1.85;;;;;;;8.98;100.00;98987.41;5042236;28;20040;-67
2023/12/10 02:16:40;;;;;;;5.80;1.83;;;;;;;9.06;100.00;99002.63;5054188;28;20468;-66
2023/12/10 02:19:07;;;;;;;5.78;1.80;;;;;;;9.01;100.00;99004.66;5030123;28;20430;-67
2023/12/10 02:21:35;;;;;;;7.00;1.85;;;;;;;9.07;100.00;99012.97;5044633;28;20073;-67
2023/12/10 02:24:09;;;;;;;5.68;2.03;;;;;;;8.87;100.00;98995.00;5057844;28;20055;-67
2023/12/10 02:26:37;;;;;;;9.95;2.20;;;;;;;8.86;100.00;98999.41;5051607;28;20057;-67
2023/12/10 02:29:04;;;;;;;7.07;1.73;;;;;;;8.88;100.00;98999.31;5067749;28;20049;-67
2023/12/10 02:31:31;;;;;;;5.93;2.17;;;;;;;8.89;100.00;99001.84;5052176;28;20486;-66
2023/12/10 02:33:58;;;;;;;6.10;1.75;;;;;;;8.87;100.00;99003.72;5053466;28;20425;-67
2023/12/10 02:36:25;;;;;;;8.02;2.15;;;;;;;8.85;100.00;99016.00;5068476;28;20048;-67
2023/12/10 02:38:52;;;;;;;4.72;1.60;;;;;;;8.86;100.00;99027.28;5071577;28;20045;-67
2023/12/10 02:41:18;;;;;;;4.93;1.73;;;;;;;8.84;100.00;99024.75;5049479;28;20041;-67
2023/12/10 02:43:45;;;;;;;6.97;1.88;;;;;;;8.80;100.00;99009.34;5063257;28;20075;-66
2023/12/10 02:46:12;;;;;;;5.60;1.70;;;;;;;8.89;100.00;99027.09;5069977;28;20053;-67
2023/12/10 02:48:39;;;;;;;7.43;1.80;;;;;;;8.89;100.00;99024.50;5066034;28;20044;-67
2023/12/10 02:51:06;;;;;;;5.00;1.70;;;;;;;8.90;100.00;99028.78;5051992;28;20048;-66
2023/12/10 02:53:32;;;;;;;10.77;2.30;;;;;;;8.69;100.00;99020.41;5069772;28;20485;-66
2023/12/10 02:55:59;;;;;;;5.82;1.83;;;;;;;8.78;100.00;99029.47;5070613;28;20053;-67
2023/12/10 02:58:26;;;;;;;6.30;1.95;;;;;;;8.83;100.00;99045.72;5034430;28;20144;-67
2023/12/10 03:00:54;;;;;;;4.10;1.60;;;;;;;8.86;100.00;99051.59;5040303;28;20049;-67
2023/12/10 03:03:21;;;;;;;5.95;1.90;;;;;;;8.83;100.00;99050.94;5049131;28;20139;-67
2023/12/10 03:05:47;;;;;;;3.83;1.50;;;;;;;8.78;100.00;99035.53;5047840;28;20063;-67
2023/12/10 03:08:14;;;;;;;4.00;1.40;;;;;;;8.80;100.00;99031.09;5071167;28;20502;-67
2023/12/10 03:10:41;;;;;;;4.75;1.90;;;;;;;8.73;100.00;99035.81;5068976;28;20339;-66
2023/12/10 03:13:08;;;;;;;5.65;1.58;;;;;;;8.83;100.00;99030.06;5044903;28;20048;-67
2023/12/10 03:15:34;;;;;;;5.38;1.73;;;;;;;8.62;100.00;99013.84;5033737;28;20142;-67
2023/12/10 03:18:01;;;;;;;5.07;1.63;;;;;;;8.48;100.00;98999.84;5059447;28;20147;-67
2023/12/10 03:20:28;;;;;;;5.93;1.80;;;;;;;8.37;100.00;99004.78;5038313;28;20542;-67
2023/12/10 03:22:55;;;;;;;3.88;1.35;;;;;;;8.44;100.00;99034.00;5060939;28;20063;-67
2023/12/10 03:25:21;;;;;;;4.80;1.30;;;;;;;8.40;100.00;99022.03;5062843;28;20418;-67
2023/12/10 03:27:51;;;;;;;5.03;1.73;;;;;;;8.46;100.00;99032.16;5069690;28;20064;-67
2023/12/10 03:30:18;;;;;;;3.50;1.35;;;;;;;8.32;100.00;99035.47;5064941;28;20063;-67
2023/12/10 03:32:45;;;;;;;4.30;1.30;;;;;;;8.21;100.00;99025.66;5034073;28;20577;-66
2023/12/10 03:35:12;;;;;;;3.22;1.42;;;;;;;8.11;100.00;99034.91;5057270;28;20065;-66
2023/12/10 03:37:39;;;;;;;5.22;1.70;;;;;;;8.10;100.00;99030.63;5049870;28;20052;-66
2023/12/10 03:40:06;;;;;;;4.97;1.60;;;;;;;8.06;100.00;99029.94;5049019;28;20434;-67
2023/12/10 03:42:33;;;;;;;5.38;1.75;;;;;;;8.03;100.00;99031.88;5046948;28;20087;-66
2023/12/10 03:45:00;;;;;;;9.82;2.00;;;;;;;8.01;100.00;99036.34;5049541;28;20052;-67
2023/12/10 03:47:26;;;;;;;4.47;1.60;;;;;;;7.91;100.00;99041.19;5031040;28;20158;-66
2023/12/10 03:49:53;;;;;;;4.00;1.45;;;;;;;7.88;100.00;99056.97;5057106;28;20119;-66
2023/12/10 03:52:20;;;;;;;4.40;1.48;;;;;;;7.77;100.00;99048.00;5044850;28;20133;-66
2023/12/10 03:54:46;;;;;;;5.50;1.88;;;;;;;7.77;100.00;99050.59;5048600;28;20052;-67
2023/12/10 03:57:13;;;;;;;4.78;1.70;;;;;;;7.74;100.00;99042.09;5031834;28;20064;-66
2023/12/10 03:59:40;;;;;;;2.78;1.20;;;;;;;7.71;100.00;99047.47;5049875;28;20057;-67
2023/12/10 04:02:07;;;;;;;5.20;1.60;;;;;;;7.59;100.00;99056.75;5048289;28;20130;-66
2023/12/10 04:04:34;;;;;;;3.72;1.35;;;;;;;7.60;100.00;99063.66;5048096;28;20706;-66
2023/12/10 04:07:00;;;;;;;3.08;1.30;;;;;;;7.67;100.00;99061.59;5067441;28;20059;-66
2023/12/10 04:09:27;;;;;;;4.53;1.63;;;;;;;7.75;100.00;99069.81;5065579;28;20046;-66
2023/12/10 04:12:01;;;;;;;5.07;1.75;;;;;;;7.52;100.00;99024.97;5050496;28;20049;-66
2023/12/10 04:14:28;;;;;;;5.43;1.58;;;;;;;7.85;100.00;99073.63;5051658;28;20049;-66
2023/12/10 04:16:55;;;;;;;8.15;1.73;;;;;;;7.82;100.00;99058.16;5067405;28;20062;-66
2023/12/10 04:19:21;;;;;;;5.88;1.77;;;;;;;7.90;100.00;99078.63;5058223;28;20055;-66
2023/12/10 04:21:48;;;;;;;4.32;1.48;;;;;;;7.92;100.00;99067.19;5057145;28;20049;-66
2023/12/10 04:24:15;;;;;;;5.57;1.58;;;;;;;7.82;100.00;99065.97;5052940;28;20044;-66
2023/12/10 04:26:42;;;;;;;4.35;1.95;;;;;;;8.00;100.00;99082.41;5048790;28;20087;-66
2023/12/10 04:29:09;;;;;;;5.38;1.75;;;;;;;7.96;100.00;99073.06;5048537;28;20045;-66
2023/12/10 04:31:36;;;;;;;5.30;2.08;;;;;;;7.98;100.00;99072.06;5045808;28;20052;-66
2023/12/10 04:34:03;;;;;;;3.95;1.58;;;;;;;8.06;100.00;99089.06;5049407;28;20454;-66
2023/12/10 04:36:30;;;;;;;8.48;1.80;;;;;;;8.06;100.00;99089.06;5047541;28;20040;-67
2023/12/10 04:38:57;;;;;;;4.78;1.77;;;;;;;8.04;100.00;99089.16;5049030;28;20053;-66
2023/12/10 04:41:23;;;;;;;5.75;1.90;;;;;;;8.10;100.00;99085.38;5048560;28;20038;-66
2023/12/10 04:43:50;;;;;;;6.63;1.80;;;;;;;8.09;100.00;99091.50;5053804;28;20163;-67
2023/12/10 04:46:17;;;;;;;6.63;1.70;;;;;;;7.98;100.00;99090.31;5066924;28;20136;-67
2023/12/10 04:48:44;;;;;;;5.00;1.85;;;;;;;7.99;100.00;99097.19;5046709;28;20403;-67
2023/12/10 04:51:11;;;;;;;4.78;1.70;;;;;;;7.90;100.00;99092.47;5049364;28;20041;-67
2023/12/10 04:53:38;;;;;;;5.03;1.83;;;;;;;7.93;100.00;99096.69;5030702;28;20053;-67
2023/12/10 04:56:05;;;;;;;6.55;2.33;;;;;;;7.97;100.00;99103.44;5053638;28;20048;-67
2023/12/10 04:58:32;;;;;;;10.30;1.92;;;;;;;8.05;100.00;99105.63;5069080;28;20045;-67
2023/12/10 05:00:59;;;;;;;3.55;1.67;;;;;;;8.04;100.00;99106.53;5059041;28;20056;-66
2023/12/10 05:03:25;;;;;;;4.95;1.80;;;;;;;8.00;100.00;99103.25;5052859;28;20381;-66
2023/12/10 05:05:52;;;;;;;6.82;1.95;;;;;;;7.93;100.00;99087.13;5058224;28;20045;-66
2023/12/10 05:08:19;;;;;;;5.32;1.70;;;;;;;7.96;100.00;99083.50;5070179;28;20086;-66
2023/12/10 05:10:45;;;;;;;5.47;1.85;;;;;;;7.92;100.00;99084.59;5053319;28;20501;-67
2023/12/10 05:13:12;;;;;;;4.45;1.50;;;;;;;7.80;100.00;99073.88;5052365;28;20045;-66
2023/12/10 05:15:39;;;;;;;5.32;1.80;;;;;;;7.68;100.00;99069.31;5063742;28;20414;-66
2023/12/10 05:18:06;;;;;;;4.90;1.80;;;;;;;7.68;100.00;99094.50;5054120;28;20106;-67
2023/12/10 05:20:32;;;;;;;5.97;1.90;;;;;;;7.58;100.00;99091.56;5051192;28;20499;-66
2023/12/10 05:23:00;;;;;;;4.18;1.60;;;;;;;7.54;100.00;99103.91;5053737;28;20364;-66
2023/12/10 05:25:30;;;;;;;3.15;1.80;;;;;;;7.56;100.00;99101.19;5066630;28;20049;-66
2023/12/10 05:27:58;;;;;;;4.35;1.67;;;;;;;7.44;100.00;99094.88;5067493;28;20052;-66
2023/12/10 05:30:25;;;;;;;3.25;1.55;;;;;;;7.45;100.00;99095.69;5066415;28;20048;-66
2023/12/10 05:32:52;;;;;;;4.25;1.60;;;;;;;7.40;100.00;99103.72;5050778;28;20060;-66
2023/12/10 05:35:19;;;;;;;3.08;1.40;;;;;;;7.33;100.00;99099.75;5071832;28;20109;-66
2023/12/10 05:37:46;;;;;;;4.68;1.67;;;;;;;7.50;100.00;99123.19;5071318;28;20056;-66
2023/12/10 05:40:12;;;;;;;5.53;1.83;;;;;;;7.57;100.00;99126.34;5070032;28;20063;-66
2023/12/10 05:42:39;;;;;;;5.53;1.60;;;;;;;7.44;100.00;99107.03;5053829;28;20114;-66
2023/12/10 05:45:07;;;;;;;5.80;2.17;;;;;;;7.58;100.00;99130.63;5066861;28;20056;-66
2023/12/10 05:47:34;;;;;;;5.75;2.20;;;;;;;7.66;100.00;99128.47;5049469;28;20079;-66
2023/12/10 05:50:01;;;;;;;6.20;1.83;;;;;;;7.74;100.00;99138.50;5061027;28;20063;-66
2023/12/10 05:52:27;;;;;;;6.63;2.22;;;;;;;7.75;100.00;99145.38;5063235;28;20045;-66
2023/12/10 05:54:55;;;;;;;7.95;2.92;;;;;;;7.78;100.00;99147.84;5072175;28;20069;-66
2023/12/10 05:57:21;;;;;;;7.38;2.42;;;;;;;7.80;100.00;99157.25;5072206;28;20405;-66
2023/12/10 05:59:48;;;;;;;7.30;2.72;;;;;;;7.78;100.00;99153.88;5060360;28;20045;-66
2023/12/10 06:02:15;;;;;;;5.82;2.60;;;;;;;7.74;100.00;99149.75;5058879;28;20048;-66
2023/12/10 06:04:41;;;;;;;10.07;3.25;;;;;;;7.83;100.00;99153.66;5070432;28;20052;-66
2023/12/10 06:07:08;;;;;;;8.57;3.50;;;;;;;7.75;100.00;99145.38;5070578;28;20059;-66
2023/12/10 06:09:35;;;;;;;7.35;2.83;;;;;;;7.74;100.00;99149.75;5070465;28;20059;-66
2023/12/10 06:12:02;;;;;;;7.10;2.72;;;;;;;7.79;100.00;99150.38;5028597;28;20107;-66
2023/12/10 06:14:29;;;;;;;7.07;2.22;;;;;;;7.90;100.00;99151.59;5067479;28;20059;-67
2023/12/10 06:16:55;;;;;;;8.95;2.90;;;;;;;7.92;100.00;99140.16;5057238;28;20080;-67
2023/12/10 06:19:22;;;;;;;7.68;2.67;;;;;;;7.95;100.00;99139.13;5049687;28;20048;-67
2023/12/10 06:21:49;;;;;;;5.90;2.40;;;;;;;8.03;100.00;99154.38;5061781;28;20543;-66
2023/12/10 06:24:16;;;;;;;7.50;2.83;;;;;;;8.01;100.00;99149.25;5071932;28;20088;-67
2023/12/10 06:26:43;;;;;;;6.70;2.10;;;;;;;8.02;100.00;99140.53;5050899;28;20494;-66
2023/12/10 06:29:10;;;;;;;5.07;1.83;;;;;;;8.01;100.00;99138.81;5070289;28;20052;-67
2023/12/10 06:31:37;;;;;;;5.70;2.08;;;;;;;8.03;100.00;99131.75;5049775;28;20048;-66
2023/12/10 06:34:03;;;;;;;6.80;2.38;;;;;;;8.11;100.00;99149.59;5059349;28;20063;-67
2023/12/10 06:36:30;;;;;;;6.70;2.30;;;;;;;7.95;100.00;99134.78;5060651;28;20430;-66
2023/12/10 06:38:57;;;;;;;5.85;2.20;;;;;;;8.05;100.00;99134.28;5071826;28;20374;-67
2023/12/10 06:41:24;;;;;;;5.78;2.17;;;;;;;8.03;100.00;99134.38;5047436;28;20065;-66
2023/12/10 06:43:50;;;;;;;6.03;2.10;;;;;;;8.04;100.00;99133.47;5069906;28;20060;-67
2023/12/10 06:46:17;;;;;;;8.43;2.22;;;;;;;8.11;100.00;99129.59;5068166;28;20051;-66
2023/12/10 06:48:44;;;;;;;6.07;2.55;;;;;;;8.09;100.00;99128.84;5066932;28;20055;-66
2023/12/10 06:51:12;;;;;;;5.88;2.50;;;;;;;7.93;100.00;99118.38;5045067;28;20077;-66
2023/12/10 06:53:40;;;;;;;5.80;1.92;;;;;;;7.96;100.00;99123.41;5054102;28;20052;-67
2023/12/10 06:56:08;;;;;;;4.55;1.75;;;;;;;8.07;100.00;99135.03;5055663;28;20057;-67
2023/12/10 06:58:34;;;;;;;8.70;2.65;;;;;;;8.02;100.00;99124.88;5063696;28;20405;-67
2023/12/10 07:01:03;;;;;;;5.10;1.92;;;;;;;8.12;100.00;99123.44;5060462;28;20500;-66
2023/12/10 07:03:30;;;;;;;5.93;2.35;;;;;;;8.23;100.00;99133.31;5045385;28;20084;-67
2023/12/10 07:05:58;;;;;;;7.07;2.38;;;;;;;8.11;100.00;99123.53;5050629;28;20045;-66
2023/12/10 07:08:26;;;;;;;5.30;1.90;;;;;;;8.21;100.00;99129.09;5049896;28;20131;-66
2023/12/10 07:10:52;;;;;;;8.40;2.92;;;;;;;8.09;100.00;99126.25;5055784;28;20052;-66
2023/12/10 07:13:19;;;;;;;6.53;2.15;;;;;;;8.21;100.00;99142.97;5053588;28;20053;-67
2023/12/10 07:15:46;;;;;;;7.85;2.45;;;;;;;8.17;100.00;99131.03;5045160;28;20086;-67
2023/12/10 07:18:13;;;;;;;7.35;2.20;;;;;;;8.19;100.00;99126.56;5055402;28;20053;-67
2023/12/10 07:20:40;;;;;;;6.90;2.40;;;;;;;8.29;100.00;99130.38;5045301;28;20172;-67
2023/12/10 07:23:07;;;;;;;8.25;2.30;;;;;;;8.32;100.00;99124.16;5049695;28;20041;-66
2023/12/10 07:25:33;;;;;;;12.38;4.45;;;;;;;8.18;100.00;99110.09;5035778;28;20049;-67
2023/12/10 07:28:00;;;;;;;9.00;2.97;;;;;;;8.29;100.00;99125.16;5033262;28;20049;-67
2023/12/10 07:30:27;;;;;;;11.82;3.55;;;;;;;8.35;100.00;99117.00;5030791;28;20701;-66
2023/12/10 07:32:54;;;;;;;11.93;3.67;;;;;;;8.44;100.00;99120.06;5040560;28;20061;-66
2023/12/10 07:35:22;;;;;;;15.88;3.50;;;;;;;8.40;100.00;99115.94;5046483;28;20047;-67
2023/12/10 07:37:49;;;;;;;12.18;2.85;;;;;;;8.39;100.00;99122.06;5043046;28;20487;-67
2023/12/10 07:40:15;;;;;;;8.57;2.70;;;;;;;8.58;100.00;99135.81;5044433;28;20127;-67
2023/12/10 07:42:42;;;;;;;8.60;2.30;;;;;;;8.59;100.00;99126.19;5045509;28;20478;-67
2023/12/10 07:45:09;;;;;;;22.10;3.60;;;;;;;8.49;100.00;99136.31;5053331;28;20049;-66
2023/12/10 07:47:36;;;;;;;12.20;2.85;;;;;;;8.55;100.00;99138.56;5048106;28;20502;-66
2023/12/10 07:50:03;;;;;;;11.00;2.72;;;;;;;8.58;100.00;99141.03;5047490;28;20055;-66
2023/12/10 07:52:30;;;;;;;8.05;2.15;;;;;;;8.49;100.00;99154.56;5049393;28;20041;-66
2023/12/10 07:54:57;;;;;;;13.07;2.55;;;;;;;8.49;100.00;99154.56;5050173;28;20061;-66
2023/12/10 07:57:24;;;;;;;12.93;2.60;;;;;;;8.63;100.00;99174.69;5049182;28;20084;-66
2023/12/10 07:59:50;;;;;;;12.32;2.47;;;;;;;8.73;100.00;99173.28;5048021;28;20053;-66
2023/12/10 08:02:17;;;;;;;13.18;3.08;;;;;;;8.72;100.00;99175.03;5042975;28;20048;-67
2023/12/10 08:04:43;;;;;;;8.52;2.03;;;;;;;8.65;100.00;99171.06;5052060;28;20502;-67
2023/12/10 08:07:10;;;;;;;15.32;2.67;;;;;;;8.55;100.00;99169.88;5048509;28;20073;-67
2023/12/10 08:09:37;;;;;;;17.52;3.15;;;;;;;8.60;100.00;99167.88;5048171;28;20402;-66
2023/12/10 08:12:05;;;;;;;11.45;2.30;;;;;;;8.53;100.00;99167.38;5030185;28;20041;-66
2023/12/10 08:14:32;;;;;;;14.20;3.40;;;;;;;8.62;100.00;99162.56;5049790;28;20139;-66
2023/12/10 08:16:59;;;;;;;10.70;2.38;;;;;;;8.70;100.00;99165.59;5044257;28;20076;-66
2023/12/10 08:19:26;;;;;;;8.73;2.08;;;;;;;8.75;100.00;99171.41;5050364;28;20056;-66
2023/12/10 08:21:53;;;;;;;15.57;2.78;;;;;;;8.72;100.00;99175.03;5052547;28;20040;-66
2023/12/10 08:24:20;;;;;;;11.45;2.55;;;;;;;8.65;100.00;99163.25;5061352;28;20060;-65
2023/12/10 08:26:47;;;;;;;11.70;2.53;;;;;;;8.82;100.00;99166.69;5069321;28;20110;-65
2023/12/10 08:29:14;;;;;;;15.88;2.55;;;;;;;8.65;100.00;99172.84;5069864;28;20053;-66
2023/12/10 08:31:41;;;;;;;15.45;2.70;;;;;;;8.85;100.00;99180.44;5053997;28;20040;-66
2023/12/10 08:34:08;;;;;;;8.60;1.70;;;;;;;8.81;100.00;99175.47;5068409;28;20563;-66
2023/12/10 08:36:36;;;;;;;9.75;2.28;;;;;;;8.67;100.00;99171.00;5054661;28;20060;-66
2023/12/10 08:39:03;;;;;;;25.33;2.90;;;;;;;8.74;100.00;99173.16;5058663;28;20477;-66
2023/12/10 08:41:31;;;;;;;15.07;3.08;;;;;;;8.70;100.00;99184.72;5061075;28;20467;-66
2023/12/10 08:43:58;;;;;;;16.50;2.75;;;;;;;8.73;100.00;99181.09;5069290;28;20048;-66
2023/12/10 08:46:24;;;;;;;6.50;1.98;;;;;;;8.73;100.00;99174.09;5055772;28;20057;-66
2023/12/10 08:48:51;;;;;;;14.15;2.60;;;;;;;8.55;100.00;99164.66;5066953;28;20074;-66
2023/12/10 08:51:18;;;;;;;20.40;3.30;;;;;;;8.49;100.00;99175.44;5049625;28;20085;-66
2023/12/10 08:53:45;;;;;;;8.45;2.13;;;;;;;8.64;100.00;99168.53;5049261;28;20052;-66
2023/12/10 08:56:11;;;;;;;12.38;2.05;;;;;;;8.75;100.00;99153.16;5069554;28;20052;-66
2023/12/10 08:58:38;;;;;;;21.05;4.35;;;;;;;8.69;100.00;99151.72;5064820;28;20478;-66
2023/12/10 09:01:06;;;;;;;13.25;2.75;;;;;;;8.80;100.00;99152.88;5051266;28;20513;-67
2023/12/10 09:03:33;;;;;;;11.63;2.95;;;;;;;8.85;100.00;99135.19;5062087;28;20058;-66
2023/12/10 09:06:00;;;;;;;15.55;3.28;;;;;;;8.69;100.00;99125.63;5062973;28;20106;-66
2023/12/10 09:08:27;;;;;;;12.25;3.03;;;;;;;8.73;100.00;99134.13;5055675;28;20048;-66
2023/12/10 09:10:54;;;;;;;19.13;4.03;;;;;;;8.76;100.00;99133.13;5056621;28;20048;-66
2023/12/10 09:13:20;;;;;;;20.42;4.53;;;;;;;8.79;100.00;99112.06;5041385;28;20041;-67
2023/12/10 09:15:49;;;;;;;18.80;3.92;;;;;;;8.69;100.00;99102.16;5066167;28;20409;-67
2023/12/10 09:18:16;;;;;;;18.85;4.20;;;;;;;8.73;100.00;99106.25;5053382;28;20052;-66
2023/12/10 09:20:44;;;;;;;13.25;2.83;;;;;;;8.85;100.00;99112.56;5051143;28;20110;-67
2023/12/10 09:23:10;;;;;;;15.45;3.50;;;;;;;8.76;100.00;99110.47;5051417;28;20045;-67
2023/12/10 09:25:37;;;;;;;13.93;3.20;;;;;;;8.77;100.00;99116.53;5059572;28;20041;-67
2023/12/10 09:28:04;;;;;;;18.67;3.15;;;;;;;8.73;100.00;99129.75;5062795;28;20052;-67
2023/12/10 09:30:33;;;;;;;12.77;3.00;;;;;;;8.56;100.00;99108.97;5046335;28;20084;-66
2023/12/10 09:33:00;;;;;;;15.88;3.25;;;;;;;8.54;100.00;99114.25;5046632;28;20045;-67
2023/12/10 09:35:27;;;;;;;13.15;3.10;;;;;;;8.68;100.00;99130.94;5043069;28;20130;-67
2023/12/10 09:37:54;;;;;;;18.42;3.75;;;;;;;8.66;100.00;99132.78;5048083;28;20561;-67
2023/12/10 09:40:21;;;;;;;20.30;5.05;;;;;;;8.49;100.00;99121.50;5046788;28;20049;-67
2023/12/10 09:42:47;;;;;;;15.80;3.10;;;;;;;8.45;100.00;99100.91;5047851;28;20045;-67
2023/12/10 09:45:14;;;;;;;14.85;3.22;;;;;;;8.42;100.00;99096.69;5048377;28;20494;-66
2023/12/10 09:47:44;;;;;;;12.82;3.10;;;;;;;8.78;100.00;99119.03;5051744;28;20091;-67
2023/12/10 09:50:11;;;;;;;19.55;3.58;;;;;;;8.68;100.00;99108.28;5056066;28;20053;-66
2023/12/10 09:52:38;;;;;;;15.93;3.47;;;;;;;8.62;100.00;99119.03;5050520;28;20063;-66
2023/12/10 09:55:05;;;;;;;14.70;3.00;;;;;;;8.79;100.00;99119.91;5052030;28;20517;-67
2023/12/10 09:57:32;;;;;;;18.05;3.83;;;;;;;8.77;100.00;99101.72;5042260;28;20056;-66
2023/12/10 09:59:59;;;;;;;16.80;4.25;;;;;;;8.77;100.00;99096.50;5051170;28;20037;-67
2023/12/10 10:02:36;;;;;;;15.43;2.95;;;;;;;8.58;100.00;99091.47;5051290;28;20496;-67
2023/12/10 10:05:05;;;;;;;14.32;2.90;;;;;;;8.82;100.00;99091.00;5051443;28;20049;-67
2023/12/10 10:07:32;;;;;;;15.00;3.55;;;;;;;8.78;100.00;99086.88;5051559;28;20041;-67
2023/12/10 10:09:59;;;;;;;17.85;3.33;;;;;;;8.66;100.00;99083.22;5052569;28;20514;-67
2023/12/10 10:12:30;;;;;;;14.05;2.95;;;;;;;8.73;100.00;99079.34;5050383;28;20044;-68
2023/12/10 10:14:59;;;;;;;12.20;3.13;;;;;;;8.74;100.00;99071.41;5064702;28;20541;-68
2023/12/10 10:17:32;;;;;;;22.77;3.97;;;;;;;8.73;100.00;99054.06;5033286;28;20417;-67
2023/12/10 10:19:59;;;;;;;16.83;4.03;;;;;;;8.46;100.00;99050.41;5051008;28;20049;-67
2023/12/10 10:22:27;;;;;;;11.65;3.08;;;;;;;8.66;100.00;99060.56;5049981;28;20053;-66
2023/12/10 10:24:54;;;;;;;24.70;4.38;;;;;;;8.59;100.00;99058.38;5050739;28;20045;-67
2023/12/10 10:27:21;;;;;;;13.48;3.55;;;;;;;8.69;100.00;99047.34;5045698;28;20076;-66
2023/12/10 10:29:54;;;;;;;15.68;3.47;;;;;;;8.57;100.00;99040.22;5049993;28;20049;-66
2023/12/10 10:32:22;;;;;;;;;;;;;;;8.74;100.00;99034.88;5047208;28;20770;-66
2023/12/10 10:34:49;;;;;;;14.70;3.33;;;;;;;8.75;100.00;99046.16;5048976;28;19960;-67
2023/12/10 10:37:17;;;;;;;19.70;3.97;;;;;;;8.69;100.00;99036.06;5050053;28;20064;-67
2023/12/10 10:39:46;;;;;;;12.23;3.08;;;;;;;8.81;100.00;99027.53;5050510;28;20102;-67
2023/12/10 10:42:13;;;;;;;25.75;4.38;;;;;;;8.58;100.00;99020.19;5040573;28;20045;-67
2023/12/10 10:44:41;;;;;;;21.67;3.63;;;;;;;8.73;100.00;99025.38;5050217;28;20401;-67
2023/12/10 10:47:08;;;;;;;14.15;3.00;;;;;;;8.96;100.00;99019.75;5032615;28;20053;-67
2023/12/10 10:49:42;;;;;;;13.60;3.40;;;;;;;8.99;100.00;99009.97;5049047;28;20410;-67
2023/12/10 10:52:11;;;;;;;;;;;;;;;8.52;100.00;99018.78;5038438;28;20049;-67
2023/12/10 10:54:39;;;;;;;11.82;2.63;;;;;;;8.81;100.00;99000.59;5050405;28;20289;-67
2023/12/10 10:57:06;;;;;;;14.00;3.03;;;;;;;8.79;100.00;99013.75;5048743;28;20057;-67
2023/12/10 10:59:33;;;;;;;10.38;2.40;;;;;;;8.77;100.00;98999.94;5049120;28;20060;-67
2023/12/10 11:02:11;;;;;;;15.15;2.58;;;;;;;8.55;100.00;98997.72;5046971;28;20076;-67
2023/12/10 11:04:39;;;;;;;15.38;2.75;;;;;;;8.74;100.00;98998.34;5049953;28;20044;-67
2023/12/10 11:07:06;;;;;;;14.40;2.90;;;;;;;8.67;100.00;98973.53;5032102;28;20396;-67
2023/12/10 11:09:56;;;;;;;13.35;2.90;;;;;;;8.79;100.00;98976.38;5049622;28;20099;-67
2023/12/10 11:12:44;;;;;;;13.27;2.63;;;;;;;8.72;100.00;98958.44;5048497;28;20053;-66
2023/12/10 11:15:20;;;;;;;7.55;2.25;;;;;;;8.80;100.00;98964.97;5037884;28;20110;-67
2023/12/10 11:17:54;;;;;;;15.10;2.55;;;;;;;8.61;100.00;98957.41;5032554;28;20140;-67
2023/12/10 11:20:33;;;;;;;10.60;2.45;;;;;;;8.70;100.00;98952.47;5048926;28;20053;-65
2023/12/10 11:23:05;;;;;;;19.10;3.17;;;;;;;8.74;100.00;98942.69;5040705;28;20357;-66
2023/12/10 11:25:33;;;;;;;14.48;3.05;;;;;;;8.61;100.00;98926.94;5049674;28;20490;-66
2023/12/10 11:28:21;;;;;;;16.33;3.97;;;;;;;8.43;100.00;98922.78;5032696;28;21019;-67
2023/12/10 11:30:48;;;;;;;17.20;3.03;;;;;;;8.66;100.00;98918.84;5040949;28;20059;-67
2023/12/10 11:33:15;;;;;;;13.35;3.33;;;;;;;8.82;100.00;98919.63;5044348;28;20053;-67